Tiempo atmosférico en la estación meteorológica de Villamayor de los Montes, Burgos (882 m.)



Fecha
DESCASC
Temp. máxima en grados centígrados (hora)
DESCASC
Temp. mínima en grados centígrados (hora)
DESCASC
Temp. media en grados centígrados
DESCASC
Racha de viento máxima en m/sg (hora)
DESCASC
Velocidad máxima media en intervalos de 10 minutos(hora)
DESCASC
Precipitaciones diarias en mm
DESCASC
Precipitaciones de 00:00 a 06:00 en mm
DESCASC
Precipitaciones de 06:00 a 12:00 en mm
DESCASC
Precipitaciones de 12:00 a 18:00 en mm
DESCASC
Precipitaciones de 18:00 a 24:00 en mm
DESCASC
23-06-2019 29.3 (16:00) 14.8 (07:40) 22 11.94 (13:40) 6.67 (13:40) 0 0 0 0 0
22-06-2019 29 (19:50) 7.5 (06:40) 18.3 9.72 (15:50) 5.28 (16:40) 0 0 0 0 0
21-06-2019 20.2 (17:00) 9.5 (06:10) 14.9 12.5 (15:10) 6.67 (01:00) 1 1 0 0 0
20-06-2019 22.9 (17:00) 12.4 (00:00) 17.6 13.61 (19:50) 8.33 (18:30) 0.6 0 0 0 0.6
19-06-2019 -- (--) -- (--) -- -- (--) -- (--) -- -- -- -- 0
18-06-2019 28.6 (16:50) 11.8 (00:00) 20.2 15.28 (15:30) 9.17 (14:40) 0 0 0 0 0
17-06-2019 29.1 (17:20) 8.4 (00:00) 18.8 11.39 (16:10) 5.56 (16:10) 0 0 0 0 0
16-06-2019 27.1 (17:50) 6 (00:00) 16.6 10.83 (14:10) 4.72 (11:20) 0 0 0 0 0
15-06-2019 22 (20:10) 8.6 (00:00) 15.3 8.33 (23:10) 5 (23:00) 0 0 0 0 0
14-06-2019 23.5 (17:20) 7.7 (00:00) 15.6 11.11 (14:20) 5.56 (14:50) 0 0 0 0 0
13-06-2019 25 (18:10) 5.5 (00:00) 15.3 14.44 (17:00) 8.33 (13:50) 0 0 0 0 0
12-06-2019 19.8 (19:10) 1.6 (00:00) 10.7 10.28 (23:10) 6.11 (22:40) 0 0 0 0 0
11-06-2019 15 (17:00) 7.3 (00:00) 11.2 15.28 (16:10) 7.22 (01:20) 0 0 0 0 0
10-06-2019 17.2 (19:30) 7.7 (00:00) 12.5 12.5 (22:50) 7.22 (22:50) 0 0 0 0 0
09-06-2019 22.7 (16:50) 7.1 (00:00) 14.9 15.28 (21:40) 8.89 (21:50) 0 0 0 0 0
08-06-2019 23.6 (16:50) 2.8 (00:00) 13.2 10.56 (23:59) 6.39 (19:20) 0 0 0 0 0
07-06-2019 16.5 (17:50) 5.9 (00:00) 11.2 12.78 (05:00) 7.5 (05:00) 3.8 3.8 0 0 0
06-06-2019 21.9 (17:50) 6.1 (00:00) 14 17.5 (20:10) 10.83 (20:40) 0.4 0 0 0 0.4
05-06-2019 16.6 (16:40) 7.1 (00:00) 11.9 11.67 (05:00) 7.5 (04:40) 3.8 1 2 0.8 0
04-06-2019 23.9 (17:00) 12.1 (00:00) 18 11.39 (17:30) 6.39 (11:30) 0.6 0 0 0 0.6
03-06-2019 29.3 (17:40) 13.1 (00:00) 21.2 9.72 (17:30) 5.28 (17:30) 0 0 0 0 0
02-06-2019 30.3 (16:20) 14.8 (00:00) 22.5 11.11 (16:20) 5.56 (16:40) 0 0 0 0 0
01-06-2019 30.9 (16:30) 11.5 (00:00) 21.2 6.11 (05:40) 3.61 (04:40) 0 0 0 0 0
31-05-2019 29.1 (17:40) 7.1 (00:00) 18.1 7.22 (19:30) 4.44 (20:00) 0 0 0 0 0
30-05-2019 26 (17:30) 5 (00:00) 15.5 12.22 (18:20) 7.22 (16:20) 0 0 0 0 0
29-05-2019 17.3 (18:40) 5.5 (00:00) 11.4 12.5 (16:00) 8.06 (13:30) 0 0 0 0 0
28-05-2019 15.6 (15:00) 6.7 (00:00) 11.2 14.44 (15:10) 8.61 (15:10) 0 0 0 0 0
27-05-2019 20 (16:00) 7.5 (00:00) 13.8 14.44 (20:40) 9.44 (20:40) 0 0 0 0 0
26-05-2019 18.3 (17:40) 6.8 (00:00) 12.5 12.5 (14:30) 8.06 (13:10) 0 0 0 0 0

Gráficas

Temp. máximas Temp. mínimas Temp. medias Precipitaciones Rachas de viento máximas Velocidades máximas media en intervalos de 10 minutos

Datos horarios

Fecha y hora oficial Temperatura (ºC) Velocidad del viento (km/h) Dirección del viento Racha (km/h) Dirección de racha Precipitación (mm) Presión (hPa) Tendencia (hPa) Humedad (%)
2019-06-24 23:00:00 17.1 3 Noroeste 23 Noroeste 0 -- -- 68
2019-06-24 22:00:00 18 11 Noroeste 32 Norte 0 -- -- 66
2019-06-24 21:00:00 19.2 12 Noroeste 32 Noroeste 0 -- -- 62
2019-06-24 20:00:00 20.8 13 Noroeste 35 Noroeste 0 -- -- 54
2019-06-24 19:00:00 26.2 15 Noroeste 31 Noroeste 0 -- -- 43
2019-06-24 18:00:00 27.8 18 Sur 35 Sur 0 -- -- 31
2019-06-24 17:00:00 27.8 20 Sur 37 Sudoeste 0 -- -- 31
2019-06-24 16:00:00 26.8 14 Sur 30 Sur 0 -- -- 31
2019-06-24 15:00:00 26.2 15 Sudoeste 28 Sudoeste 0 -- -- 31
2019-06-24 14:00:00 24.8 20 Sudoeste 40 Sur 0 -- -- 32
2019-06-24 13:00:00 25 23 Sur 37 Sur 0 -- -- 33
2019-06-24 12:00:00 25.1 17 Sur 35 Sur 0 -- -- 33
2019-06-24 11:00:00 22.9 14 Sudeste 30 Sudeste 0 -- -- 41
2019-06-24 10:00:00 20 3 Sudeste 7 Sur 0 -- -- 51
2019-06-24 09:00:00 17.5 2 Norte 8 Este 0 -- -- 61
2019-06-24 08:00:00 16.3 6 Este 10 Este 0 -- -- 61
2019-06-24 07:00:00 15.6 3 Norte 6 Noroeste 0 -- -- 64
2019-06-24 06:00:00 16.2 2 Norte 7 Sudeste 0 -- -- 60
2019-06-24 05:00:00 16.6 3 Sudeste 8 Oeste 0 -- -- 56
2019-06-24 04:00:00 17.7 6 Este 9 Este 0 -- -- 51
2019-06-24 03:00:00 18.9 3 Este 12 Este 0 -- -- 45
2019-06-24 02:00:00 19.4 6 Nordeste 10 Este 0 -- -- 43
2019-06-24 01:00:00 19.4 6 Norte 12 Norte 0 -- -- 43
2019-06-24 00:00:00 20.2 7 Norte 13 Norte 0 -- -- 40
2019-06-23 23:00:00 21.4 5 Nordeste 14 Norte 0 -- -- 37
2019-06-23 22:00:00 22.2 9 Norte 21 Norte 0 -- -- 35
2019-06-23 21:00:00 24.5 13 Norte 23 Noroeste 0 -- -- 31
2019-06-23 20:00:00 26.2 10 Noroeste 23 Noroeste 0 -- -- 28
2019-06-23 19:00:00 28 7 Noroeste 33 Oeste 0 -- -- 27
2019-06-23 18:00:00 28.5 16 Sudoeste 37 Sudoeste 0 -- -- 25
2019-06-23 17:00:00 28.8 21 Sudoeste 35 Sudoeste 0 -- -- 26
2019-06-23 16:00:00 29.3 13 Sur 37 Sur 0 -- -- 26
2019-06-23 15:00:00 27.4 16 Sudoeste 37 Sur 0 -- -- 27
2019-06-23 14:00:00 26.6 18 Sudoeste 43 Sur 0 -- -- 28
2019-06-23 13:00:00 25.3 17 Sur 28 Sudoeste 0 -- -- 28
2019-06-23 12:00:00 23.8 11 Sur 26 Sur 0 -- -- 34
2019-06-23 11:00:00 22 8 Sur 15 Sur 0 -- -- 39
2019-06-23 10:00:00 20.2 4 Sur 8 Sudeste 0 -- -- 42
2019-06-23 09:00:00 17.7 3 Sur 6 Sur 0 -- -- 49
2019-06-23 08:00:00 14.8 0 Calma 13 Sur 0 -- -- 58
2019-06-23 07:00:00 15.3 4 Sudeste 20 Sur 0 -- -- 53
2019-06-23 06:00:00 16.1 14 Sur 17 Sudeste 0 -- -- 50
2019-06-23 05:00:00 16.7 8 Sur 14 Sur 0 -- -- 47
2019-06-23 04:00:00 16.9 8 Sudeste 13 Sudeste 0 -- -- 46
2019-06-23 03:00:00 17 4 Este 15 Sur 0 -- -- 46
2019-06-23 02:00:00 17.8 12 Sur 18 Sur 0 -- -- 45
2019-06-23 01:00:00 19.3 10 Sur 15 Sur 0 -- -- 43
2019-06-23 00:00:00 20.2 13 Sur 19 Sur 0 -- -- 41
2019-06-22 23:00:00 22.7 7 Sudeste 13 Sudeste 0 -- -- 35
2019-06-22 22:00:00 23.8 2 Este 6 Sudeste 0 -- -- 35
2019-06-22 21:00:00 26.9 2 Norte 10 Oeste 0 -- -- 29
2019-06-22 20:00:00 29 4 Oeste 15 Noroeste 0 -- -- 27
2019-06-22 19:00:00 28.5 5 Sudoeste 25 Sur 0 -- -- 28
2019-06-22 18:00:00 28 8 Sudoeste 28 Sudoeste 0 -- -- 28
2019-06-22 17:00:00 27.8 12 Sudoeste 32 Sudoeste 0 -- -- 27
2019-06-22 16:00:00 27.8 13 Sudoeste 35 Sur 0 -- -- 29
2019-06-22 15:00:00 26.7 13 Sudoeste 29 Sudoeste 0 -- -- 29
2019-06-22 14:00:00 25.2 16 Sudoeste 34 Oeste 0 -- -- 32
2019-06-22 13:00:00 24.2 15 Sudoeste 29 Sudoeste 0 -- -- 35
2019-06-22 12:00:00 22.4 12 Sudoeste 26 Sudoeste 0 -- -- 42
2019-06-22 11:00:00 20.2 11 Sur 21 Sur 0 -- -- 49
2019-06-22 10:00:00 17.8 12 Sur 23 Sudeste 0 -- -- 58
2019-06-22 09:00:00 14.4 0 Calma 13 Este 0 -- -- 73
2019-06-22 08:00:00 12.7 4 Este 12 Este 0 -- -- 79
2019-06-22 07:00:00 8.3 7 Este 12 Este 0 -- -- 90
2019-06-22 06:00:00 8.1 0 Calma 10 Este 0 -- -- 87
2019-06-22 05:00:00 9.1 3 Nordeste 15 Este 0 -- -- 83
2019-06-22 04:00:00 9.7 6 Este 12 Este 0 -- -- 84
2019-06-22 03:00:00 9.8 3 Este 14 Nordeste 0 -- -- 83
2019-06-22 02:00:00 10.4 8 Nordeste 12 Nordeste 0 -- -- 83
2019-06-22 01:00:00 11.4 7 Nordeste 19 Nordeste 0 -- -- 79
2019-06-22 00:00:00 12.3 12 Nordeste 24 Norte 0 -- -- 76
2019-06-21 23:00:00 13.3 12 Nordeste 27 Nordeste 0 -- -- 73
2019-06-21 22:00:00 14.9 16 Nordeste 27 Nordeste 0 -- -- 66
2019-06-21 21:00:00 16.7 15 Nordeste 33 Nordeste 0 -- -- 59
2019-06-21 20:00:00 18.4 18 Norte 39 Norte 0 -- -- 54
2019-06-21 19:00:00 19 21 Norte 37 Norte 0 -- -- 52
2019-06-21 18:00:00 19.8 21 Norte 37 Norte 0 -- -- 50
2019-06-21 17:00:00 20.2 21 Norte 41 Nordeste 0 -- -- 49
2019-06-21 16:00:00 19.9 19 Norte 45 Nordeste 0 -- -- 52
2019-06-21 15:00:00 19.3 18 Norte 34 Norte 0 -- -- 57
2019-06-21 14:00:00 17.2 19 Norte 42 Norte 0 -- -- 62
2019-06-21 13:00:00 16.2 23 Norte 37 Norte 0 -- -- 68
2019-06-21 12:00:00 14.7 21 Norte 34 Norte 0 -- -- 72
2019-06-21 11:00:00 14.2 21 Norte 35 Norte 0 -- -- 75
2019-06-21 10:00:00 13 22 Norte 33 Nordeste 0 -- -- 83
2019-06-21 09:00:00 12.7 19 Nordeste 37 Nordeste 0 -- -- 85
2019-06-21 08:00:00 11.6 15 Nordeste 32 Nordeste 0 -- -- 90
2019-06-21 07:00:00 9.7 8 Norte 15 Norte 0 -- -- 94
2019-06-21 06:00:00 9.6 4 Norte 9 Norte 0 -- -- 92
2019-06-21 05:00:00 11 5 Este 31 Nordeste 0 -- -- 91
2019-06-21 04:00:00 11.5 17 Nordeste 39 Este 0.6 -- -- 91
2019-06-21 03:00:00 11.7 14 Nordeste 31 Norte 0.4 -- -- 90
2019-06-21 02:00:00 11.9 20 Norte 32 Norte 0 -- -- 88
2019-06-21 01:00:00 12.1 24 Norte 36 Norte 0 -- -- 89
2019-06-21 00:00:00 12.4 21 Norte 40 Nordeste 0 -- -- 90
2019-06-20 23:00:00 12.8 23 Norte 35 Nordeste 0.2 -- -- 88
2019-06-20 22:00:00 13.7 15 Nordeste 48 Nordeste 0 -- -- 84
2019-06-20 21:00:00 14.2 22 Nordeste 43 Nordeste 0.4 -- -- 82
2019-06-20 20:00:00 16.8 21 Nordeste 49 Nordeste 0 -- -- 67
2019-06-20 19:00:00 18.3 27 Nordeste 46 Nordeste 0 -- -- 62
2019-06-20 18:00:00 19.4 26 Norte 41 Norte 0 -- -- 56
2019-06-20 17:00:00 22.9 15 Norte 32 Nordeste 0 -- -- 44
2019-06-20 16:00:00 22 15 Nordeste 30 Nordeste 0 -- -- 48
2019-06-20 15:00:00 20.9 14 Norte 26 Nordeste 0 -- -- 51
2019-06-20 14:00:00 20.2 12 Nordeste 24 Norte 0 -- -- 53
2019-06-20 13:00:00 19.8 13 Norte 23 Norte 0 -- -- 56
2019-06-20 12:00:00 19.4 11 Norte 22 Norte 0 -- -- 58
2019-06-20 11:00:00 17.7 12 Norte 20 Nordeste 0 -- -- 68
2019-06-20 10:00:00 15.9 12 Nordeste 19 Norte 0 -- -- 74
2019-06-20 09:00:00 14.7 11 Nordeste 18 Nordeste 0 -- -- 80
2019-06-20 08:00:00 13.6 9 Nordeste 15 Nordeste 0 -- -- 84
2019-06-20 07:00:00 13 10 Nordeste 15 Nordeste 0 -- -- 87
2019-06-20 06:00:00 13.1 8 Nordeste 17 Nordeste 0 -- -- 87
2019-06-20 05:00:00 12.9 10 Nordeste 17 Nordeste 0 -- -- 89
2019-06-20 04:00:00 12.8 9 Nordeste 14 Nordeste 0 -- -- 88
2019-06-20 03:00:00 13.4 6 Nordeste 12 Nordeste 0 -- -- 85
2019-06-20 02:00:00 13.6 9 Nordeste 15 Norte 0 -- -- 85
2019-06-20 01:00:00 15.2 8 Nordeste 16 Nordeste 0 -- -- 73
2019-06-20 00:00:00 16.7 2 Norte 9 Oeste 0 -- -- 58
2019-06-19 23:00:00 17.5 3 Oeste 9 Oeste 0 -- -- 55
2019-06-19 22:00:00 19.6 5 Oeste 20 Oeste 0 -- -- 49
2019-06-19 21:00:00 21.2 10 Oeste 31 Oeste 0 -- -- 46
2019-06-19 20:00:00 23 14 Oeste 29 Oeste 0 -- -- 42
2019-06-19 19:00:00 23 11 Oeste 28 Oeste 0 -- -- 40
2019-06-19 18:00:00 23.8 11 Oeste 28 Oeste 0 -- -- 40
2019-06-19 17:00:00 23 12 Oeste 33 Sudoeste 0 -- -- 42
2019-06-19 16:00:00 22.6 13 Sudoeste -- -- -- -- -- 46
2019-06-19 15:00:00 21.5 12 Sudoeste 28 Oeste 0 -- -- 51
2019-06-19 14:00:00 21 14 Sudoeste 28 Oeste 0 -- -- 49
2019-06-19 13:00:00 20.1 12 Sudoeste 29 Sudoeste 0 -- -- 53
2019-06-19 12:00:00 18.7 14 Sudoeste 28 Sudoeste 0 -- -- 59
2019-06-19 11:00:00 17.5 16 Sudoeste 26 Sudoeste 0 -- -- 64
2019-06-19 10:00:00 17.4 13 Sudoeste 26 Sudoeste 0 -- -- 65
2019-06-19 09:00:00 15.2 14 Sudoeste 26 Sudoeste 0 -- -- 75
2019-06-19 08:00:00 14.6 13 Sudoeste 23 Sudoeste 0 -- -- 79
2019-06-19 07:00:00 14.3 10 Sudoeste -- -- -- -- -- 79
2019-06-19 06:00:00 -- -- -- -- -- -- -- -- --
2019-06-19 05:00:00 -- -- -- -- -- -- -- -- --
2019-06-19 04:00:00 13.4 5 Sudeste 12 Sudoeste 0 -- -- 75
2019-06-19 03:00:00 14.1 9 Sur 12 Sur 0 -- -- 74
2019-06-19 02:00:00 14.8 2 Oeste 9 Oeste 0 -- -- 68
2019-06-19 01:00:00 16 5 Oeste 14 Oeste 0 -- -- 62
2019-06-19 00:00:00 17.7 9 Oeste 18 Sudoeste 0 -- -- 55
2019-06-18 23:00:00 19 13 Sudoeste 21 Sudoeste 0 -- -- 49
2019-06-18 22:00:00 20.5 11 Sudoeste 36 Sudoeste 0 -- -- 43
2019-06-18 21:00:00 22.3 21 Oeste 41 Oeste 0 -- -- 39
2019-06-18 20:00:00 24.8 20 Sudoeste 49 Sudoeste 0 -- -- 33
2019-06-18 19:00:00 26.4 22 Sudoeste 42 Oeste 0 -- -- 28
2019-06-18 18:00:00 27.5 26 Sudoeste 45 Oeste 0 -- -- 19
2019-06-18 17:00:00 28.3 18 Sudoeste 50 Sur 0 -- -- 17
2019-06-18 16:00:00 28.2 28 Sudoeste 55 Sudoeste 0 -- -- 15
2019-06-18 15:00:00 27.8 33 Sudoeste 51 Sudoeste 0 -- -- 15
2019-06-18 14:00:00 27.1 29 Sudoeste 44 Sudoeste 0 -- -- 19
2019-06-18 13:00:00 25.4 23 Sudoeste 44 Sudoeste 0 -- -- 21
2019-06-18 12:00:00 23.9 19 Sudoeste 36 Sudoeste 0 -- -- 28
2019-06-18 11:00:00 22.4 19 Sudoeste 33 Sudoeste 0 -- -- 32
2019-06-18 10:00:00 21.1 22 Sudoeste 35 Sudoeste 0 -- -- 31
2019-06-18 09:00:00 20 19 Sur 28 Sur 0 -- -- 33
2019-06-18 08:00:00 17.5 15 Sur 21 Sur 0 -- -- 38
2019-06-18 07:00:00 12.3 3 Sudeste 7 Sudeste 0 -- -- 53
2019-06-18 06:00:00 13 2 Nordeste 3 Este 0 -- -- 52
2019-06-18 05:00:00 14.3 0 Calma 9 Este 0 -- -- 47
2019-06-18 04:00:00 17.3 3 Este 23 Este 0 -- -- 39
2019-06-18 03:00:00 18.2 8 Nordeste 17 Este 0 -- -- 39
2019-06-18 02:00:00 18 6 Este 13 Sudeste 0 -- -- 38
2019-06-18 01:00:00 18.7 3 Sur 6 Sur 0 -- -- 35
2019-06-18 00:00:00 19.8 0 Calma 8 Oeste 0 -- -- 32
2019-06-17 23:00:00 21.1 5 Oeste 17 Noroeste 0 -- -- 30
2019-06-17 22:00:00 22.9 8 Noroeste 19 Oeste 0 -- -- 26
2019-06-17 21:00:00 24.5 6 Noroeste 17 Noroeste 0 -- -- 25
2019-06-17 20:00:00 26.7 8 Noroeste 28 Oeste 0 -- -- 24
2019-06-17 19:00:00 28.3 14 Sudoeste 31 Oeste 0 -- -- 19
2019-06-17 18:00:00 28.1 17 Sudoeste 32 Sur 0 -- -- 20
2019-06-17 17:00:00 28.8 13 Sudoeste 41 Sudoeste 0 -- -- 19
2019-06-17 16:00:00 28.2 14 Sur 33 Sur 0 -- -- 20
2019-06-17 15:00:00 27.6 18 Sudoeste 32 Sur 0 -- -- 20
2019-06-17 14:00:00 26.7 15 Sur 29 Sudoeste 0 -- -- 22
2019-06-17 13:00:00 25.6 15 Sudoeste 30 Sur 0 -- -- 23
2019-06-17 12:00:00 24.9 14 Sudoeste 24 Sudoeste 0 -- -- 26
2019-06-17 11:00:00 23 8 Sur 18 Sur 0 -- -- 31
2019-06-17 10:00:00 20.2 8 Sur 16 Sur 0 -- -- 33
2019-06-17 09:00:00 17.9 8 Sur 14 Sur 0 -- -- 38
2019-06-17 08:00:00 13.2 5 Sudeste 9 Este 0 -- -- 55
2019-06-17 07:00:00 8.9 3 Este 6 Este 0 -- -- 74
2019-06-17 06:00:00 9.3 0 Calma 3 Sudoeste 0 -- -- 72
2019-06-17 05:00:00 10.5 0 Calma 7 Este 0 -- -- 69
2019-06-17 04:00:00 10.8 0 Calma 10 Sudeste 0 -- -- 69
2019-06-17 03:00:00 11.5 0 Calma 6 Noroeste 0 -- -- 69
2019-06-17 02:00:00 14.1 4 Nordeste 14 Este 0 -- -- 61
2019-06-17 01:00:00 16 9 Nordeste 15 Nordeste 0 -- -- 57
2019-06-17 00:00:00 17.4 9 Nordeste 15 Nordeste 0 -- -- 51
2019-06-16 23:00:00 19.8 3 Nordeste 10 Norte 0 -- -- 44
2019-06-16 22:00:00 21.7 7 Norte 13 Norte 0 -- -- 31
2019-06-16 21:00:00 24.7 4 Noroeste 15 Oeste 0 -- -- 24
2019-06-16 20:00:00 27.1 6 Sudoeste 14 Sudoeste 0 -- -- 20
2019-06-16 19:00:00 26.6 3 Sudeste 24 Sur 0 -- -- 21
2019-06-16 18:00:00 27.1 9 Sur 29 Sur 0 -- -- 20
2019-06-16 17:00:00 27 8 Sur 26 Sur 0 -- -- 20
2019-06-16 16:00:00 26.4 15 Sudoeste 27 Sudoeste 0 -- -- 23
2019-06-16 15:00:00 25.5 16 Sur 39 Sur 0 -- -- 22
2019-06-16 14:00:00 24.5 9 Sudeste 28 Sur 0 -- -- 26
2019-06-16 13:00:00 23.6 11 Sur 29 Sur 0 -- -- 27
2019-06-16 12:00:00 22.5 10 Sur 27 Sudeste 0 -- -- 31
2019-06-16 11:00:00 20.7 12 Sur 26 Sur 0 -- -- 40
2019-06-16 10:00:00 18.4 10 Sudeste 23 Sudeste 0 -- -- 46
2019-06-16 09:00:00 13.5 5 Nordeste 17 Este 0 -- -- 62
2019-06-16 08:00:00 9.4 0 Calma 5 Nordeste 0 -- -- 78
2019-06-16 07:00:00 6.9 3 Nordeste 6 Nordeste 0 -- -- 84
2019-06-16 06:00:00 6 0 Calma 5 Nordeste 0 -- -- 86
2019-06-16 05:00:00 7 0 Calma 7 Nordeste 0 -- -- 85
2019-06-16 04:00:00 8.2 3 Nordeste 5 Nordeste 0 -- -- 83
2019-06-16 03:00:00 8.8 3 Norte 7 Este 0 -- -- 81
2019-06-16 02:00:00 10.2 3 Nordeste 8 Nordeste 0 -- -- 77
2019-06-16 01:00:00 11.4 4 Nordeste 21 Nordeste 0 -- -- 74
2019-06-16 00:00:00 12.2 13 Nordeste 30 Nordeste 0 -- -- 71
2019-06-15 23:00:00 13.8 18 Nordeste 27 Nordeste 0 -- -- 65
2019-06-15 22:00:00 17.6 7 Norte 14 Norte 0 -- -- 40
2019-06-15 21:00:00 20.4 2 Norte 8 Sudoeste 0 -- -- 31
2019-06-15 20:00:00 21.8 4 Oeste 17 Oeste 0 -- -- 29
2019-06-15 19:00:00 21.6 6 Oeste 17 Oeste 0 -- -- 30
2019-06-15 18:00:00 21.7 6 Oeste 16 Oeste 0 -- -- 30
2019-06-15 17:00:00 21.2 8 Oeste 19 Sudoeste 0 -- -- 32
2019-06-15 16:00:00 20 10 Noroeste 25 Oeste 0 -- -- 36
2019-06-15 15:00:00 19.6 8 Norte 22 Norte 0 -- -- 37
2019-06-15 14:00:00 17.8 6 Noroeste 15 Sudoeste 0 -- -- 43
2019-06-15 13:00:00 16.6 4 Noroeste 17 Oeste 0 -- -- 49
2019-06-15 12:00:00 15.1 8 Oeste 23 Sudoeste 0 -- -- 53
2019-06-15 11:00:00 13.8 8 Sudoeste 16 Sudoeste 0 -- -- 60
2019-06-15 10:00:00 11.7 6 Oeste 12 Sudoeste 0 -- -- 67
2019-06-15 09:00:00 9.5 9 Sudoeste 14 Sudoeste 0 -- -- 74
2019-06-15 08:00:00 8.9 10 Sur 15 Sur 0 -- -- 79
2019-06-15 07:00:00 8.9 3 Sudoeste 7 Sur 0 -- -- 89
2019-06-15 06:00:00 8.8 3 Sur 5 Sur 0 -- -- 87
2019-06-15 05:00:00 8.9 2 Noroeste 5 Norte 0 -- -- 88
2019-06-15 04:00:00 8.9 0 Calma 6 Sudoeste 0 -- -- 89
2019-06-15 03:00:00 9.2 3 Oeste 10 Nordeste 0 -- -- 85
2019-06-15 02:00:00 10 6 Nordeste 12 Nordeste 0 -- -- 85
2019-06-15 01:00:00 10.7 5 Nordeste 15 Nordeste 0 -- -- 81
2019-06-15 00:00:00 11.6 10 Norte 26 Norte 0 -- -- 78
2019-06-14 23:00:00 13.3 16 Norte 27 Norte 0 -- -- 72
2019-06-14 22:00:00 17.1 13 Oeste 30 Oeste 0 -- -- 37
2019-06-14 21:00:00 19.5 15 Oeste 31 Sudoeste 0 -- -- 31
2019-06-14 20:00:00 21.7 12 Oeste 33 Oeste 0 -- -- 25
2019-06-14 19:00:00 22.6 14 Oeste 35 Sudoeste 0 -- -- 22
2019-06-14 18:00:00 23.3 16 Sudoeste 37 Oeste 0 -- -- 22
2019-06-14 17:00:00 23.2 11 Sudoeste 38 Sudoeste 0 -- -- 22
2019-06-14 16:00:00 22.8 15 Sudoeste 31 Sudoeste 0 -- -- 22
2019-06-14 15:00:00 21.8 18 Sudoeste 40 Sur 0 -- -- 28
2019-06-14 14:00:00 21.5 15 Sudoeste 32 Sudoeste 0 -- -- 30
2019-06-14 13:00:00 20.9 16 Sudoeste 31 Sudoeste 0 -- -- 30
2019-06-14 12:00:00 19.9 18 Sudoeste 30 Sudoeste 0 -- -- 37
2019-06-14 11:00:00 18.1 8 Sudoeste 18 Sur 0 -- -- 47
2019-06-14 10:00:00 15.9 6 Sur 13 Sur 0 -- -- 60
2019-06-14 09:00:00 12 7 Nordeste 15 Nordeste 0 -- -- 78
2019-06-14 08:00:00 9.1 6 Nordeste 12 Nordeste 0 -- -- 88
2019-06-14 07:00:00 7.8 5 Nordeste 12 Nordeste 0 -- -- 91
2019-06-14 06:00:00 8.2 8 Nordeste 13 Nordeste 0 -- -- 91
2019-06-14 05:00:00 8.5 6 Nordeste 13 Norte 0 -- -- 91
2019-06-14 04:00:00 8.9 8 Nordeste 17 Nordeste 0 -- -- 90
2019-06-14 03:00:00 9.3 11 Nordeste 22 Nordeste 0 -- -- 89
2019-06-14 02:00:00 9.8 13 Nordeste 32 Nordeste 0 -- -- 87
2019-06-14 01:00:00 10.6 14 Nordeste 31 Nordeste 0 -- -- 85
2019-06-14 00:00:00 11.2 14 Nordeste 24 Norte 0 -- -- 82
2019-06-13 23:00:00 13 13 Norte 30 Norte 0 -- -- 74
2019-06-13 22:00:00 16.7 19 Norte 31 Norte 0 -- -- 59
2019-06-13 21:00:00 21.3 8 Noroeste 24 Noroeste 0 -- -- 25
2019-06-13 20:00:00 23.5 9 Oeste 25 Oeste 0 -- -- 23
2019-06-13 19:00:00 24 16 Oeste 36 Sudoeste 0 -- -- 23
2019-06-13 18:00:00 24.6 11 Oeste 39 Sur 0 -- -- 23
2019-06-13 17:00:00 24.5 23 Sudoeste 52 Sur 0 -- -- 23
2019-06-13 16:00:00 23.9 18 Sudoeste 40 Sur 0 -- -- 26
2019-06-13 15:00:00 23.3 19 Sudoeste 45 Sudoeste 0 -- -- 22
2019-06-13 14:00:00 21.9 28 Sudoeste 47 Sudoeste 0 -- -- 23
2019-06-13 13:00:00 20.8 23 Sudoeste 45 Sur 0 -- -- 28
2019-06-13 12:00:00 19.6 20 Sur 38 Sudoeste 0 -- -- 32
2019-06-13 11:00:00 17.7 22 Sur 38 Sur 0 -- -- 39
2019-06-13 10:00:00 16.1 18 Sur 29 Sur 0 -- -- 44
2019-06-13 09:00:00 12.3 7 Sur 17 Sur 0 -- -- 66
2019-06-13 08:00:00 7.5 8 Este 14 Este 0 -- -- 82
2019-06-13 07:00:00 5.7 8 Nordeste 14 Nordeste 0 -- -- 88
2019-06-13 06:00:00 5.8 7 Nordeste 14 Nordeste 0 -- -- 87
2019-06-13 05:00:00 6.6 9 Nordeste 15 Nordeste 0 -- -- 84
2019-06-13 04:00:00 7.1 7 Nordeste 12 Nordeste 0 -- -- 83
2019-06-13 03:00:00 8.3 8 Nordeste 13 Nordeste 0 -- -- 79
2019-06-13 02:00:00 9.3 9 Nordeste 22 Nordeste 0 -- -- 76
2019-06-13 01:00:00 9.9 14 Nordeste 24 Nordeste 0 -- -- 74
2019-06-13 00:00:00 10.3 11 Nordeste 37 Nordeste 0 -- -- 72
2019-06-12 23:00:00 11.8 21 Nordeste 37 Nordeste 0 -- -- 66
2019-06-12 22:00:00 15 10 Norte 16 Norte 0 -- -- 32
2019-06-12 21:00:00 17.8 8 Norte 15 Noroeste 0 -- -- 26
2019-06-12 20:00:00 19.6 6 Noroeste 22 Oeste 0 -- -- 24
2019-06-12 19:00:00 19.6 4 Noroeste 28 Sudoeste 0 -- -- 24
2019-06-12 18:00:00 19.5 9 Sudoeste 25 Sur 0 -- -- 23
2019-06-12 17:00:00 18.5 9 Sudoeste 28 Oeste 0 -- -- 24
2019-06-12 16:00:00 17.9 12 Sudoeste 27 Oeste 0 -- -- 25
2019-06-12 15:00:00 16.8 10 Sudoeste 27 Sudoeste 0 -- -- 30
2019-06-12 14:00:00 15.6 14 Sudoeste 29 Oeste 0 -- -- 32
2019-06-12 13:00:00 14.3 12 Oeste 26 Oeste 0 -- -- 34
2019-06-12 12:00:00 12.9 11 Sudoeste 29 Sudoeste 0 -- -- 39
2019-06-12 11:00:00 11 10 Sudoeste 19 Sudoeste 0 -- -- 46
2019-06-12 10:00:00 9 9 Sudoeste 16 Sudoeste 0 -- -- 54
2019-06-12 09:00:00 7.2 8 Sudoeste 14 Sur 0 -- -- 66
2019-06-12 08:00:00 4.7 8 Sur 11 Sur 0 -- -- 81
2019-06-12 07:00:00 2.8 5 Sudeste 13 Sudeste 0 -- -- 86
2019-06-12 06:00:00 1.9 4 Sur 12 Sudeste 0 -- -- 89
2019-06-12 05:00:00 2.8 4 Sudeste 8 Sudeste 0 -- -- 87
2019-06-12 04:00:00 3.2 0 Calma 9 Sudeste 0 -- -- 83
2019-06-12 03:00:00 4.1 4 Noroeste 9 Oeste 0 -- -- 82
2019-06-12 02:00:00 5.9 3 Este 10 Este 0 -- -- 76
2019-06-12 01:00:00 7 8 Nordeste 14 Nordeste 0 -- -- 72
2019-06-12 00:00:00 7.6 6 Nordeste 14 Nordeste 0 -- -- 69
2019-06-11 23:00:00 8.7 8 Nordeste 21 Nordeste 0 -- -- 65
2019-06-11 22:00:00 9.6 13 Nordeste 34 Norte 0 -- -- 61
2019-06-11 21:00:00 11.7 18 Nordeste 31 Nordeste 0 -- -- 54
2019-06-11 20:00:00 13.3 17 Norte 35 Norte 0 -- -- 46
2019-06-11 19:00:00 13.8 21 Norte 38 Norte 0 -- -- 48
2019-06-11 18:00:00 13.5 22 Nordeste 41 Norte 0 -- -- 47
2019-06-11 17:00:00 15 21 Norte 55 Norte 0 -- -- 43
2019-06-11 16:00:00 14.2 19 Nordeste 40 Nordeste 0 -- -- 44
2019-06-11 15:00:00 13.9 22 Norte 40 Norte 0 -- -- 43
2019-06-11 14:00:00 11.5 13 Noroeste 38 Norte 0 -- -- 56
2019-06-11 13:00:00 12 20 Norte 33 Norte 0 -- -- 50
2019-06-11 12:00:00 10.9 17 Norte 35 Norte 0 -- -- 60
2019-06-11 11:00:00 8.6 22 Norte 34 Nordeste 0 -- -- 68
2019-06-11 10:00:00 8.3 20 Norte 36 Norte 0 -- -- 69
2019-06-11 09:00:00 7.9 17 Norte 42 Norte 0 -- -- 75
2019-06-11 08:00:00 7.4 19 Norte 33 Norte 0 -- -- 77
2019-06-11 07:00:00 7.3 17 Nordeste 29 Nordeste 0 -- -- 80
2019-06-11 06:00:00 7.4 17 Nordeste 31 Nordeste 0 -- -- 81
2019-06-11 05:00:00 7.5 14 Nordeste 33 Nordeste 0 -- -- 81
2019-06-11 04:00:00 7.8 21 Nordeste 37 Nordeste 0 -- -- 78
2019-06-11 03:00:00 8.3 18 Nordeste 37 Nordeste 0 -- -- 75
2019-06-11 02:00:00 8.3 19 Nordeste 39 Nordeste 0 -- -- 78
2019-06-11 01:00:00 8.5 23 Norte 43 Nordeste 0 -- -- 81
2019-06-11 00:00:00 9.1 24 Nordeste 42 Nordeste 0 -- -- 77
2019-06-10 23:00:00 10.1 22 Nordeste 45 Nordeste 0 -- -- 74
2019-06-10 22:00:00 11.8 23 Nordeste 41 Nordeste 0 -- -- 65
2019-06-10 21:00:00 14.4 14 Nordeste 27 Nordeste 0 -- -- 51
2019-06-10 20:00:00 15.7 14 Nordeste 25 Nordeste 0 -- -- 47
2019-06-10 19:00:00 16.5 12 Norte 24 Norte 0 -- -- 44
2019-06-10 18:00:00 15.9 10 Nordeste 23 Norte 0 -- -- 45
2019-06-10 17:00:00 15.9 11 Norte 27 Norte 0 -- -- 45
2019-06-10 16:00:00 16 12 Norte 29 Norte 0 -- -- 45
2019-06-10 15:00:00 15.2 12 Norte 28 Norte 0 -- -- 47
2019-06-10 14:00:00 14.5 12 Norte 27 Norte 0 -- -- 51
2019-06-10 13:00:00 14 11 Norte 29 Norte 0 -- -- 54
2019-06-10 12:00:00 13.1 13 Norte 26 Norte 0 -- -- 59
2019-06-10 11:00:00 11.1 15 Norte 31 Nordeste 0 -- -- 68
2019-06-10 10:00:00 10.2 17 Norte 31 Norte 0 -- -- 71
2019-06-10 09:00:00 9.2 15 Nordeste 36 Norte 0 -- -- 78
2019-06-10 08:00:00 8.7 20 Norte 32 Norte 0 -- -- 81
2019-06-10 07:00:00 7.8 16 Norte 31 Nordeste 0 -- -- 84
2019-06-10 06:00:00 8.2 22 Nordeste 35 Nordeste 0 -- -- 83
2019-06-10 05:00:00 8.4 22 Norte 38 Nordeste 0 -- -- 84
2019-06-10 04:00:00 8.8 20 Nordeste 34 Nordeste 0 -- -- 84
2019-06-10 03:00:00 9.1 23 Nordeste 41 Norte 0 -- -- 85
2019-06-10 02:00:00 9.1 24 Nordeste 39 Norte 0 -- -- 85
2019-06-10 01:00:00 9.1 22 Nordeste 39 Norte 0 -- -- 86
2019-06-10 00:00:00 9.8 22 Norte 50 Norte 0 -- -- 82
2019-06-09 23:00:00 10.5 29 Norte 47 Norte 0 -- -- 84
2019-06-09 22:00:00 11.4 29 Norte 55 Norte 0 -- -- 82
2019-06-09 21:00:00 12.8 28 Nordeste 46 Nordeste 0 -- -- 79
2019-06-09 20:00:00 15.4 27 Nordeste 46 Nordeste 0 -- -- 70
2019-06-09 19:00:00 17.2 26 Nordeste 41 Nordeste 0 -- -- 62
2019-06-09 18:00:00 20.7 7 Sudoeste 18 Sudoeste 0 -- -- 38
2019-06-09 17:00:00 21.9 8 Sudoeste 23 Oeste 0 -- -- 35
2019-06-09 16:00:00 22.2 9 Noroeste 29 Oeste 0 -- -- 37
2019-06-09 15:00:00 20.7 5 Oeste 22 Oeste 0 -- -- 41
2019-06-09 14:00:00 19.8 10 Oeste 28 Oeste 0 -- -- 39
2019-06-09 13:00:00 18.8 9 Sudoeste 20 Sur 0 -- -- 52
2019-06-09 12:00:00 16.9 7 Noroeste 15 Sudoeste 0 -- -- 61
2019-06-09 11:00:00 15.2 8 Oeste 18 Oeste 0 -- -- 68
2019-06-09 10:00:00 13.7 7 Sudoeste 14 Sur 0 -- -- 72
2019-06-09 09:00:00 12.6 2 Sudeste 9 Este 0 -- -- 76
2019-06-09 08:00:00 9.3 2 Nordeste 7 Norte 0 -- -- 90
2019-06-09 07:00:00 7.2 0 Calma 4 Nordeste 0 -- -- 91
2019-06-09 06:00:00 8.5 4 Nordeste 10 Nordeste 0 -- -- 90
2019-06-09 05:00:00 8.8 2 Norte 13 Nordeste 0 -- -- 88
2019-06-09 04:00:00 9.8 11 Nordeste 36 Nordeste 0 -- -- 87
2019-06-09 03:00:00 10.1 15 Nordeste 28 Este 0 -- -- 87
2019-06-09 02:00:00 10.6 19 Nordeste 36 Nordeste 0 -- -- 84
2019-06-09 01:00:00 12.1 19 Nordeste 37 Nordeste 0 -- -- 78
2019-06-09 00:00:00 13.3 22 Nordeste 38 Nordeste 0 -- -- 73
2019-06-08 23:00:00 14.8 16 Norte 28 Nordeste 0 -- -- 67
2019-06-08 22:00:00 16.3 19 Nordeste 33 Nordeste 0 -- -- 61
2019-06-08 21:00:00 18.3 15 Nordeste 36 Nordeste 0 -- -- 46
2019-06-08 20:00:00 18.9 22 Nordeste 36 Nordeste 0 -- -- 45
2019-06-08 19:00:00 20.1 19 Nordeste 31 Norte 0 -- -- 43
2019-06-08 18:00:00 20.8 18 Norte 33 Norte 0 -- -- 40
2019-06-08 17:00:00 22.8 19 Norte 30 Norte 0 -- -- 36
2019-06-08 16:00:00 22.9 8 Sudoeste 25 Sur 0 -- -- 28
2019-06-08 15:00:00 22.5 11 Sudoeste 30 Sur 0 -- -- 25
2019-06-08 14:00:00 21 8 Sudoeste 25 Sur 0 -- -- 28
2019-06-08 13:00:00 19.5 9 Sudoeste 24 Sur 0 -- -- 33
2019-06-08 12:00:00 18.2 4 Sur 15 Sudeste 0 -- -- 41
2019-06-08 11:00:00 16 10 Nordeste 27 Nordeste 0 -- -- 43
2019-06-08 10:00:00 13 6 Nordeste 13 Norte 0 -- -- 61
2019-06-08 09:00:00 9.3 6 Nordeste 9 Nordeste 0 -- -- 72
2019-06-08 08:00:00 5.6 6 Nordeste 13 Nordeste 0 -- -- 84
2019-06-08 07:00:00 2.8 3 Nordeste 5 Norte 0 -- -- 89
2019-06-08 06:00:00 3.7 0 Calma 5 Norte 0 -- -- 87
2019-06-08 05:00:00 4.4 2 Sudeste 9 Este 0 -- -- 85
2019-06-08 04:00:00 5.4 5 Este 12 Este 0 -- -- 81
2019-06-08 03:00:00 5.9 5 Este 12 Nordeste 0 -- -- 81
2019-06-08 02:00:00 6.8 5 Nordeste 14 Norte 0 -- -- 81
2019-06-08 01:00:00 8.2 0 Calma 14 Nordeste 0 -- -- 64
2019-06-08 00:00:00 9.3 6 Sudoeste 14 Sur 0 -- -- 59
2019-06-07 23:00:00 10.2 8 Sudoeste 13 Sudoeste 0 -- -- 59
2019-06-07 22:00:00 11.8 10 Sudoeste 14 Sudoeste 0 -- -- 54
2019-06-07 21:00:00 14.7 10 Sudoeste 17 Sudoeste 0 -- -- 42
2019-06-07 20:00:00 15.4 10 Sudoeste 23 Sudoeste 0 -- -- 38
2019-06-07 19:00:00 15.6 14 Sudoeste 28 Sudoeste 0 -- -- 35
2019-06-07 18:00:00 16.1 11 Oeste 26 Oeste 0 -- -- 35
2019-06-07 17:00:00 15.7 11 Oeste 30 Oeste 0 -- -- 37
2019-06-07 16:00:00 15.7 16 Oeste 33 Oeste 0 -- -- 38
2019-06-07 15:00:00 14.6 13 Oeste 36 Oeste 0 -- -- 41
2019-06-07 14:00:00 13.9 13 Oeste 32 Oeste 0 -- -- 46
2019-06-07 13:00:00 11.8 14 Oeste 35 Oeste 0 -- -- 51
2019-06-07 12:00:00 11.1 17 Oeste 38 Sudoeste 0 -- -- 61
2019-06-07 11:00:00 9.8 16 Sudoeste 39 Sudoeste 0 -- -- 68
2019-06-07 10:00:00 8.2 19 Sudoeste 40 Sudoeste 0 -- -- 76
2019-06-07 09:00:00 7.2 18 Sudoeste 36 Sur 0 -- -- 85
2019-06-07 08:00:00 6.7 20 Sudoeste 37 Sudoeste 0 -- -- 88
2019-06-07 07:00:00 6 20 Sudoeste 36 Sudoeste 0 -- -- 90
2019-06-07 06:00:00 6 22 Sudoeste 35 Sudoeste 0 -- -- 88
2019-06-07 05:00:00 6.4 27 Sudoeste 46 Sudoeste 0 -- -- 88
2019-06-07 04:00:00 6.5 21 Sudoeste 37 Sudoeste 0 -- -- 91
2019-06-07 03:00:00 6.7 20 Sudoeste 46 Sudoeste 0.6 -- -- 86
2019-06-07 02:00:00 7.3 19 Sudoeste 41 Oeste 1 -- -- 86
2019-06-07 01:00:00 8.7 18 Oeste 44 Sudoeste 2.2 -- -- 90
2019-06-07 00:00:00 11.5 20 Sudoeste 42 Sudoeste 0.4 -- -- 83
2019-06-06 23:00:00 14.5 19 Sudoeste 47 Sudoeste 0 -- -- 60
2019-06-06 22:00:00 16.3 23 Sudoeste 50 Sudoeste 0 -- -- 50
2019-06-06 21:00:00 18.6 36 Sur 63 Sur 0 -- -- 36
2019-06-06 20:00:00 19.2 36 Sur 60 Sudoeste 0 -- -- 34
2019-06-06 19:00:00 20.1 35 Sur 59 Sudoeste 0 -- -- 30
2019-06-06 18:00:00 21.8 35 Sur 62 Sur 0 -- -- 26
2019-06-06 17:00:00 21.2 34 Sur 54 Sudoeste 0 -- -- 26
2019-06-06 16:00:00 20.4 25 Sur 52 Sur 0 -- -- 27
2019-06-06 15:00:00 18.1 29 Sudoeste 47 Sudoeste 0 -- -- 32
2019-06-06 14:00:00 17.7 26 Sudoeste 46 Sur 0 -- -- 29
2019-06-06 13:00:00 16.3 28 Sur 45 Sudoeste 0 -- -- 37
2019-06-06 12:00:00 14.9 22 Sur 37 Sur 0 -- -- 45
2019-06-06 11:00:00 13.1 14 Sur 26 Sudoeste 0 -- -- 54
2019-06-06 10:00:00 11.2 9 Sur 15 Sur 0 -- -- 74
2019-06-06 09:00:00 9.6 8 Sur 13 Sur 0 -- -- 82
2019-06-06 08:00:00 7.9 4 Sudeste 8 Sur 0 -- -- 91
2019-06-06 07:00:00 6.1 0 Calma 10 Sudeste 0 -- -- 93
2019-06-06 06:00:00 6.5 0 Calma 7 Sudoeste 0 -- -- 92
2019-06-06 05:00:00 7.1 4 Sudoeste 9 Sur 0 -- -- 92
2019-06-06 04:00:00 7.3 3 Sur 6 Sur 0 -- -- 91
2019-06-06 03:00:00 7.6 0 Calma 6 Este 0 -- -- 87
2019-06-06 02:00:00 7.5 3 Este 10 Nordeste 0 -- -- 86
2019-06-06 01:00:00 7.5 9 Nordeste 15 Nordeste 0 -- -- 87
2019-06-06 00:00:00 7.8 8 Nordeste 17 Nordeste 0 -- -- 85
2019-06-05 23:00:00 8.7 10 Nordeste 20 Nordeste 0 -- -- 81
2019-06-05 22:00:00 9.5 12 Nordeste 23 Nordeste 0 -- -- 79
2019-06-05 21:00:00 10.9 16 Norte 27 Norte 0 -- -- 73
2019-06-05 20:00:00 13.4 13 Nordeste 27 Norte 0 -- -- 61
2019-06-05 19:00:00 13.2 16 Nordeste 27 Nordeste 0 -- -- 61
2019-06-05 18:00:00 13.9 13 Nordeste 30 Nordeste 0 -- -- 58
2019-06-05 17:00:00 16.2 13 Norte 33 Noroeste 0 -- -- 53
2019-06-05 16:00:00 16.3 13 Oeste 34 Oeste 0 -- -- 42
2019-06-05 15:00:00 15.4 15 Oeste 34 Oeste 0 -- -- 47
2019-06-05 14:00:00 11.2 14 Oeste 38 Oeste 0.8 -- -- 66
2019-06-05 13:00:00 12.5 9 Oeste 21 Sudoeste 0 -- -- 68
2019-06-05 12:00:00 10.6 9 Oeste 19 Oeste 0 -- -- 72
2019-06-05 11:00:00 8.4 5 Noroeste 24 Norte 1 -- -- 88
2019-06-05 10:00:00 9.2 16 Nordeste 32 Nordeste 0 -- -- 80
2019-06-05 09:00:00 7.4 15 Norte 34 Norte 0 -- -- 90
2019-06-05 08:00:00 7.1 16 Nordeste 31 Norte 0.6 -- -- 91
2019-06-05 07:00:00 7.3 19 Nordeste 36 Norte 0.4 -- -- 91
2019-06-05 06:00:00 7.8 19 Norte 35 Norte 0.4 -- -- 90
2019-06-05 05:00:00 8.3 26 Norte 42 Norte 0.4 -- -- 91
2019-06-05 04:00:00 9.2 22 Nordeste 37 Nordeste 0.2 -- -- 85
2019-06-05 03:00:00 9.5 21 Norte 36 Nordeste 0 -- -- 86
2019-06-05 02:00:00 9.9 19 Nordeste 31 Nordeste 0 -- -- 88
2019-06-05 01:00:00 10.8 17 Nordeste 34 Nordeste 0 -- -- 85
2019-06-05 00:00:00 12.1 12 Norte 24 Norte 0 -- -- 86
2019-06-04 23:00:00 13.7 10 Nordeste 32 Norte 0.6 -- -- 82
2019-06-04 22:00:00 17.8 10 Oeste 24 Oeste 0 -- -- 51
2019-06-04 21:00:00 19.1 11 Oeste 26 Oeste 0 -- -- 47
2019-06-04 20:00:00 20.4 12 Oeste 28 Oeste 0 -- -- 44
2019-06-04 19:00:00 20.7 13 Noroeste 36 Oeste 0 -- -- 42
2019-06-04 18:00:00 22.7 16 Oeste 41 Sudoeste 0 -- -- 35
2019-06-04 17:00:00 23.9 15 Sudoeste 36 Sudoeste 0 -- -- 34
2019-06-04 16:00:00 22.8 20 Sudoeste 36 Oeste 0 -- -- 33
2019-06-04 15:00:00 22.5 14 Oeste 39 Sudoeste 0 -- -- 40
2019-06-04 14:00:00 21.1 17 Sudoeste 37 Sudoeste 0 -- -- 43
2019-06-04 13:00:00 20.1 17 Sudoeste 40 Sudoeste 0 -- -- 47
2019-06-04 12:00:00 18.8 21 Sudoeste 37 Sudoeste 0 -- -- 50
2019-06-04 11:00:00 16.2 18 Sudoeste 31 Sudoeste 0 -- -- 65
2019-06-04 10:00:00 14.7 14 Sudoeste 24 Sudoeste 0 -- -- 75
2019-06-04 09:00:00 13.9 13 Sudoeste 19 Sur 0 -- -- 77
2019-06-04 08:00:00 13.3 12 Sur 17 Sur 0 -- -- 79
2019-06-04 07:00:00 12.6 10 Sur 17 Sudoeste 0 -- -- 82
2019-06-04 06:00:00 13 12 Sur 24 Sur 0 -- -- 79
2019-06-04 05:00:00 13.6 15 Sur 19 Sur 0 -- -- 73
2019-06-04 04:00:00 14.7 9 Sur 16 Sur 0 -- -- 62
2019-06-04 03:00:00 15.7 10 Sur 15 Sur 0 -- -- 54
2019-06-04 02:00:00 17.1 12 Sur 17 Sur 0 -- -- 45
2019-06-04 01:00:00 17.2 10 Sur 15 Sudeste 0 -- -- 44
2019-06-04 00:00:00 19.3 5 Sudeste 9 Sudeste 0 -- -- 41
2019-06-03 23:00:00 20.4 2 Sur 6 Sudoeste 0 -- -- 36
2019-06-03 22:00:00 22.6 3 Sudoeste 18 Sudoeste 0 -- -- 31
2019-06-03 21:00:00 25.8 7 Oeste 27 Oeste 0 -- -- 24
2019-06-03 20:00:00 27.9 15 Sudoeste 30 Sudoeste 0 -- -- 20
2019-06-03 19:00:00 28.5 14 Oeste 30 Sudoeste 0 -- -- 19
2019-06-03 18:00:00 29.1 16 Sudoeste 35 Sudoeste 0 -- -- 18
2019-06-03 17:00:00 28.9 15 Sudoeste 33 Sudoeste 0 -- -- 17
2019-06-03 16:00:00 28.5 14 Sudoeste 33 Sudoeste 0 -- -- 19
2019-06-03 15:00:00 27.6 15 Sudoeste 30 Sudoeste 0 -- -- 20
2019-06-03 14:00:00 26.5 15 Sudoeste 32 Oeste 0 -- -- 23
2019-06-03 13:00:00 25.3 15 Sudoeste 27 Sudoeste 0 -- -- 25
2019-06-03 12:00:00 23.4 12 Sudoeste 21 Sudoeste 0 -- -- 28
2019-06-03 11:00:00 21.4 9 Sudoeste 17 Sudoeste 0 -- -- 31
2019-06-03 10:00:00 19 8 Sudoeste 15 Sur 0 -- -- 39
2019-06-03 09:00:00 17.4 12 Sur 18 Sur 0 -- -- 42
2019-06-03 08:00:00 15.5 8 Sur 15 Sur 0 -- -- 46
2019-06-03 07:00:00 14.8 3 Sudeste 13 Sur 0 -- -- 53
2019-06-03 06:00:00 13.1 3 Sur 6 Sudeste 0 -- -- 55
2019-06-03 05:00:00 14.3 6 Sur 11 Sudeste 0 -- -- 48
2019-06-03 04:00:00 13.6 3 Sur 10 Sur 0 -- -- 52
2019-06-03 03:00:00 13.5 3 Sur 5 Sur 0 -- -- 54
2019-06-03 02:00:00 13.9 0 Calma 9 Sudeste 0 -- -- 52
2019-06-03 01:00:00 15.4 0 Calma 5 Sudeste 0 -- -- 48
2019-06-03 00:00:00 16.2 3 Este 10 Noroeste 0 -- -- 46
2019-06-02 23:00:00 20.2 0 Calma 3 Este 0 -- -- 32
2019-06-02 22:00:00 23.2 2 Noroeste 9 Oeste 0 -- -- 26
2019-06-02 21:00:00 25.5 5 Noroeste 26 Oeste 0 -- -- 22
2019-06-02 20:00:00 27.7 11 Oeste 30 Oeste 0 -- -- 22
2019-06-02 19:00:00 28.5 9 Noroeste 27 Oeste 0 -- -- 21
2019-06-02 18:00:00 29.3 14 Oeste 35 Oeste 0 -- -- 19
2019-06-02 17:00:00 29.7 18 Oeste 40 Sudoeste 0 -- -- 20
2019-06-02 16:00:00 29.6 14 Oeste 38 Sudoeste 0 -- -- 23
2019-06-02 15:00:00 29.3 16 Sudoeste 39 Sudoeste 0 -- -- 23
2019-06-02 14:00:00 29.5 11 Sudoeste 27 Oeste 0 -- -- 26
2019-06-02 13:00:00 28.2 10 Sudoeste 23 Sudoeste 0 -- -- 31
2019-06-02 12:00:00 26 12 Sur 22 Sur 0 -- -- 34
2019-06-02 11:00:00 23.7 11 Sur 21 Sur 0 -- -- 38
2019-06-02 10:00:00 21.5 13 Sur 23 Sur 0 -- -- 39
2019-06-02 09:00:00 20.3 14 Sur 18 Sur 0 -- -- 40
2019-06-02 08:00:00 16.3 0 Calma 8 Este 0 -- -- 55
2019-06-02 07:00:00 14.8 0 Calma 13 Oeste 0 -- -- 56
2019-06-02 06:00:00 18.6 11 Sudeste 24 Este 0 -- -- 43
2019-06-02 05:00:00 19.5 13 Sudeste 26 Sudeste 0 -- -- 41
2019-06-02 04:00:00 18.9 6 Sudeste 11 Sudeste 0 -- -- 44
2019-06-02 03:00:00 20.7 5 Norte 23 Sudeste 0 -- -- 41
2019-06-02 02:00:00 21.7 15 Sudeste 31 Sudeste 0 -- -- 39
2019-06-02 01:00:00 21.1 13 Sudeste 23 Sudeste 0 -- -- 43
2019-06-02 00:00:00 22.6 13 Sudeste 21 Sudeste 0 -- -- 35
2019-06-01 23:00:00 22.4 4 Este 18 Este 0 -- -- 29
2019-06-01 22:00:00 25.7 9 Este 12 Este 0 -- -- 26
2019-06-01 21:00:00 27.8 8 Nordeste 15 Norte 0 -- -- 24
2019-06-01 20:00:00 30.1 11 Norte 18 Norte 0 -- -- 21
2019-06-01 19:00:00 30.7 4 Sudeste 21 Norte 0 -- -- 20
2019-06-01 18:00:00 30.7 7 Sur 17 Norte 0 -- -- 19
2019-06-01 17:00:00 30.5 8 Noroeste 19 Norte 0 -- -- 21
2019-06-01 16:00:00 30.5 10 Norte 20 Nordeste 0 -- -- 22
2019-06-01 15:00:00 29.7 11 Norte 22 Norte 0 -- -- 22
2019-06-01 14:00:00 29.1 7 Nordeste 19 Norte 0 -- -- 23
2019-06-01 13:00:00 28.2 6 Sudoeste 14 Sudoeste 0 -- -- 27
2019-06-01 12:00:00 26.4 4 Sudoeste 13 Sudoeste 0 -- -- 30
2019-06-01 11:00:00 24.4 6 Sur 17 Sur 0 -- -- 31
2019-06-01 10:00:00 21.1 4 Sudoeste 9 Sur 0 -- -- 39
2019-06-01 09:00:00 18.1 0 Calma 2 Sudoeste 0 -- -- 52
2019-06-01 08:00:00 13.9 0 Calma 5 Noroeste 0 -- -- 60
2019-06-01 07:00:00 13 0 Calma 13 Este 0 -- -- 56
2019-06-01 06:00:00 16.6 7 Este 22 Sudeste 0 -- -- 43
2019-06-01 05:00:00 16.4 12 Este 21 Este 0 -- -- 44
2019-06-01 04:00:00 16.6 10 Este 21 Sudeste 0 -- -- 46
2019-06-01 03:00:00 11.6 0 Calma 9 Nordeste 0 -- -- 64
2019-06-01 02:00:00 12.3 5 Nordeste 7 Nordeste 0 -- -- 61
2019-06-01 01:00:00 14.9 2 Nordeste 7 Este 0 -- -- 54
2019-06-01 00:00:00 16.9 3 Este 8 Sur 0 -- -- 48
2019-05-31 23:00:00 19.7 3 Nordeste 11 Nordeste 0 -- -- 41
2019-05-31 22:00:00 22.6 4 Nordeste 12 Nordeste 0 -- -- 36
2019-05-31 21:00:00 25.1 9 Nordeste 23 Nordeste 0 -- -- 30
2019-05-31 20:00:00 27.2 16 Norte 26 Norte 0 -- -- 24
2019-05-31 19:00:00 28.4 14 Nordeste 23 Norte 0 -- -- 22
2019-05-31 18:00:00 29.1 9 Norte 23 Norte 0 -- -- 21
2019-05-31 17:00:00 28.8 12 Nordeste 21 Nordeste 0 -- -- 21
2019-05-31 16:00:00 28.5 8 Noroeste 18 Norte 0 -- -- 20
2019-05-31 15:00:00 27.4 7 Norte 16 Norte 0 -- -- 23
2019-05-31 14:00:00 26.3 7 Oeste 15 Oeste 0 -- -- 23
2019-05-31 13:00:00 25.5 6 Sudoeste 16 Sur 0 -- -- 25
2019-05-31 12:00:00 23.9 4 Sudoeste 11 Sudeste 0 -- -- 32
2019-05-31 11:00:00 21.9 4 Sudeste 9 Sudeste 0 -- -- 38
2019-05-31 10:00:00 18.5 3 Norte 5 Noroeste 0 -- -- 55
2019-05-31 09:00:00 13.8 0 Calma 4 Sur 0 -- -- 70
2019-05-31 08:00:00 9.3 2 Norte 5 Norte 0 -- -- 80
2019-05-31 07:00:00 7.2 0 Calma 7 Este 0 -- -- 83
2019-05-31 06:00:00 8 0 Calma 5 Nordeste 0 -- -- 81
2019-05-31 05:00:00 9.1 3 Este 12 Nordeste 0 -- -- 78
2019-05-31 04:00:00 10.4 7 Este 10 Este 0 -- -- 77
2019-05-31 03:00:00 10.7 2 Nordeste 6 Este 0 -- -- 71
2019-05-31 02:00:00 11.7 0 Calma 6 Nordeste 0 -- -- 70
2019-05-31 01:00:00 14.4 3 Este 11 Este 0 -- -- 62
2019-05-31 00:00:00 17 8 Este 17 Nordeste 0 -- -- 55
2019-05-30 23:00:00 18.5 12 Nordeste 23 Nordeste 0 -- -- 51
2019-05-30 22:00:00 20 9 Nordeste 27 Nordeste 0 -- -- 42
2019-05-30 21:00:00 22.4 15 Nordeste 31 Nordeste 0 -- -- 38
2019-05-30 20:00:00 23.9 18 Nordeste 35 Nordeste 0 -- -- 32
2019-05-30 19:00:00 24.9 22 Nordeste 44 Norte 0 -- -- 29
2019-05-30 18:00:00 25.5 23 Nordeste 41 Nordeste 0 -- -- 28
2019-05-30 17:00:00 25.6 22 Nordeste 39 Norte 0 -- -- 27
2019-05-30 16:00:00 25.7 19 Nordeste 34 Norte 0 -- -- 26
2019-05-30 15:00:00 25.3 17 Norte 32 Norte 0 -- -- 29
2019-05-30 14:00:00 24.6 13 Nordeste 35 Norte 0 -- -- 31
2019-05-30 13:00:00 22.7 12 Norte 29 Norte 0 -- -- 36
2019-05-30 12:00:00 21.1 14 Norte 24 Norte 0 -- -- 42
2019-05-30 11:00:00 19.2 10 Nordeste 21 Norte 0 -- -- 49
2019-05-30 10:00:00 16.3 11 Norte 20 Nordeste 0 -- -- 58
2019-05-30 09:00:00 12.3 4 Nordeste 10 Nordeste 0 -- -- 68
2019-05-30 08:00:00 7.6 4 Nordeste 8 Nordeste 0 -- -- 80
2019-05-30 07:00:00 5.2 0 Calma 10 Nordeste 0 -- -- 83
2019-05-30 06:00:00 7 6 Nordeste 15 Nordeste 0 -- -- 80
2019-05-30 05:00:00 6.2 5 Nordeste 13 Nordeste 0 -- -- 82
2019-05-30 04:00:00 7.4 5 Nordeste 7 Nordeste 0 -- -- 83
2019-05-30 03:00:00 8.7 3 Nordeste 12 Nordeste 0 -- -- 78
2019-05-30 02:00:00 9.4 3 Norte 9 Nordeste 0 -- -- 76
2019-05-30 01:00:00 10.1 4 Noroeste 9 Nordeste 0 -- -- 76
2019-05-30 00:00:00 11.2 4 Nordeste 13 Nordeste 0 -- -- 71
2019-05-29 23:00:00 12.3 5 Nordeste 19 Nordeste 0 -- -- 67
2019-05-29 22:00:00 13.7 10 Nordeste 22 Nordeste 0 -- -- 65
2019-05-29 21:00:00 15.4 13 Nordeste 26 Nordeste 0 -- -- 59
2019-05-29 20:00:00 16.6 16 Nordeste 34 Nordeste 0 -- -- 55
2019-05-29 19:00:00 17.1 20 Nordeste 35 Norte 0 -- -- 53
2019-05-29 18:00:00 17.1 23 Nordeste 43 Nordeste 0 -- -- 53
2019-05-29 17:00:00 16.8 22 Nordeste 44 Nordeste 0 -- -- 54
2019-05-29 16:00:00 16.3 28 Norte 45 Nordeste 0 -- -- 54
2019-05-29 15:00:00 15.5 25 Nordeste 44 Norte 0 -- -- 57
2019-05-29 14:00:00 14.6 26 Nordeste 42 Norte 0 -- -- 57
2019-05-29 13:00:00 14 24 Nordeste 38 Nordeste 0 -- -- 58
2019-05-29 12:00:00 12.6 18 Norte 31 Norte 0 -- -- 64
2019-05-29 11:00:00 11.7 19 Norte 31 Norte 0 -- -- 66
2019-05-29 10:00:00 10.6 21 Norte 34 Nordeste 0 -- -- 69
2019-05-29 09:00:00 9.6 16 Norte 25 Norte 0 -- -- 72
2019-05-29 08:00:00 7.2 7 Nordeste 13 Norte 0 -- -- 83
2019-05-29 07:00:00 5.5 4 Nordeste 8 Norte 0 -- -- 89
2019-05-29 06:00:00 6.1 6 Norte 18 Nordeste 0 -- -- 86
2019-05-29 05:00:00 7 13 Norte 22 Norte 0 -- -- 83
2019-05-29 04:00:00 7 10 Norte 28 Norte 0 -- -- 81
2019-05-29 03:00:00 7.4 20 Norte 30 Nordeste 0 -- -- 79
2019-05-29 02:00:00 7.2 16 Nordeste 28 Norte 0 -- -- 77
2019-05-29 01:00:00 7.6 16 Nordeste 30 Nordeste 0 -- -- 74
2019-05-29 00:00:00 7.9 24 Norte 36 Norte 0 -- -- 71
2019-05-28 23:00:00 8.3 14 Norte 34 Nordeste 0 -- -- 68
2019-05-28 22:00:00 9.5 20 Norte 43 Norte 0 -- -- 62
2019-05-28 21:00:00 11.4 28 Norte 41 Norte 0 -- -- 55
2019-05-28 20:00:00 13.4 22 Nordeste 43 Nordeste 0 -- -- 50
2019-05-28 19:00:00 14.5 29 Norte 47 Norte 0 -- -- 49
2019-05-28 18:00:00 15 25 Nordeste 44 Nordeste 0 -- -- 47
2019-05-28 17:00:00 15.2 26 Nordeste 51 Norte 0 -- -- 47
2019-05-28 16:00:00 15.6 30 Norte 52 Norte 0 -- -- 47
2019-05-28 15:00:00 15.6 28 Norte 46 Nordeste 0 -- -- 45
2019-05-28 14:00:00 14.3 28 Norte 48 Norte 0 -- -- 49
2019-05-28 13:00:00 13.7 28 Norte 44 Nordeste 0 -- -- 54
2019-05-28 12:00:00 12.5 26 Nordeste 44 Norte 0 -- -- 55
2019-05-28 11:00:00 11.5 22 Norte 37 Norte 0 -- -- 58
2019-05-28 10:00:00 10.2 26 Norte 42 Nordeste 0 -- -- 65
2019-05-28 09:00:00 9.6 17 Nordeste 38 Norte 0 -- -- 65
2019-05-28 08:00:00 8.1 14 Nordeste 33 Nordeste 0 -- -- 73
2019-05-28 07:00:00 6.9 18 Nordeste 37 Nordeste 0 -- -- 77
2019-05-28 06:00:00 7 21 Nordeste 35 Norte 0 -- -- 76
2019-05-28 05:00:00 7.1 19 Norte 31 Nordeste 0 -- -- 80
2019-05-28 04:00:00 7.7 15 Nordeste 29 Nordeste 0 -- -- 83
2019-05-28 03:00:00 7.8 18 Nordeste 33 Norte 0 -- -- 84
2019-05-28 02:00:00 8.4 16 Norte 31 Nordeste 0 -- -- 81
2019-05-28 01:00:00 9.3 20 Nordeste 39 Nordeste 0 -- -- 79
2019-05-28 00:00:00 10 21 Nordeste 39 Nordeste 0 -- -- 79
2019-05-27 23:00:00 10.9 23 Nordeste 39 Nordeste 0 -- -- 72
2019-05-27 22:00:00 12.3 20 Nordeste 39 Norte 0 -- -- 67
2019-05-27 21:00:00 14 25 Norte 52 Norte 0 -- -- 65
2019-05-27 20:00:00 16.9 26 Norte 47 Norte 0 -- -- 58
2019-05-27 19:00:00 18.7 22 Nordeste 38 Norte 0 -- -- 50
2019-05-27 18:00:00 19.5 21 Nordeste 39 Nordeste 0 -- -- 50
2019-05-27 17:00:00 19.8 17 Nordeste 48 Norte 0 -- -- 51
2019-05-27 16:00:00 20 23 Norte 44 Norte 0 -- -- 51
2019-05-27 15:00:00 19.7 21 Nordeste 41 Norte 0 -- -- 52
2019-05-27 14:00:00 19.3 22 Norte 35 Norte 0 -- -- 54
2019-05-27 13:00:00 18.4 21 Norte 33 Nordeste 0 -- -- 56
2019-05-27 12:00:00 16.9 18 Norte 33 Nordeste 0 -- -- 60
2019-05-27 11:00:00 15 23 Norte 37 Norte 0 -- -- 67
2019-05-27 10:00:00 13.7 21 Norte 35 Norte 0 -- -- 69
2019-05-27 09:00:00 10.7 10 Norte 15 Norte 0 -- -- 81
2019-05-27 08:00:00 7.8 5 Norte 9 Norte 0 -- -- 92
2019-05-27 07:00:00 7.5 3 Norte 15 Norte 0 -- -- 92
2019-05-27 06:00:00 7.6 4 Norte 12 Norte 0 -- -- 92
2019-05-27 05:00:00 7.9 7 Nordeste 17 Nordeste 0 -- -- 89
2019-05-27 04:00:00 8.1 6 Norte 11 Norte 0 -- -- 89
2019-05-27 03:00:00 8.5 5 Norte 10 Norte 0 -- -- 86
2019-05-27 02:00:00 9.3 5 Norte 17 Nordeste 0 -- -- 83
2019-05-27 01:00:00 10.6 13 Nordeste 17 Norte 0 -- -- 80
2019-05-27 00:00:00 11.7 7 Nordeste 28 Nordeste 0 -- -- 77
2019-05-26 23:00:00 12.3 15 Nordeste 30 Nordeste 0 -- -- 76
2019-05-26 22:00:00 13.4 15 Nordeste 33 Nordeste 0 -- -- 72
2019-05-26 21:00:00 15.4 17 Nordeste 39 Nordeste 0 -- -- 65
2019-05-26 20:00:00 17.2 20 Norte 33 Norte 0 -- -- 60
2019-05-26 19:00:00 17.7 22 Nordeste 39 Nordeste 0 -- -- 58
2019-05-26 18:00:00 18 22 Norte 39 Norte 0 -- -- 56
2019-05-26 17:00:00 17.9 23 Nordeste 39 Nordeste 0 -- -- 56
2019-05-26 16:00:00 17 23 Nordeste 43 Nordeste 0 -- -- 58
2019-05-26 15:00:00 15.7 23 Nordeste 45 Norte 0 -- -- 62
2019-05-26 14:00:00 14.7 25 Nordeste 42 Norte 0 -- -- 63
2019-05-26 13:00:00 14.5 28 Norte 44 Norte 0 -- -- 63
2019-05-26 12:00:00 13 23 Nordeste 38 Norte 0 -- -- 67
2019-05-26 11:00:00 11.8 23 Norte 39 Norte 0 -- -- 70
2019-05-26 10:00:00 10.8 20 Norte 33 Norte 0 -- -- 76
2019-05-26 09:00:00 9.8 17 Norte 31 Norte 0 -- -- 80
2019-05-26 08:00:00 8.8 14 Norte 25 Norte 0 -- -- 84
2019-05-26 07:00:00 8.5 12 Nordeste 25 Norte 0 -- -- 84
2019-05-26 06:00:00 8.4 15 Norte 26 Norte 0 -- -- 83
2019-05-26 05:00:00 8.2 10 Norte 18 Norte 0 -- -- 82
2019-05-26 04:00:00 8.5 14 Nordeste 29 Nordeste 0 -- -- 78
2019-05-26 03:00:00 8 17 Nordeste 31 Nordeste 0 -- -- 80
2019-05-26 02:00:00 6.8 11 Norte 33 Nordeste 0 -- -- 86
2019-05-26 01:00:00 7.6 21 Norte 30 Norte 0 -- -- 82
2019-05-26 00:00:00 8.4 16 Norte 26 Norte 0 -- -- 85